createdAt,value
2022-09-03T00:00:28.345Z,65.27
2022-09-03T00:02:57.965Z,65.72
2022-09-03T00:05:29.654Z,65.56
2022-09-03T00:08:05.801Z,65.65
2022-09-03T00:11:01.412Z,65.99
2022-09-03T00:13:36.733Z,65.68
2022-09-03T00:16:10.284Z,66.00
2022-09-03T00:18:45.047Z,66.26
2022-09-03T00:21:16.193Z,66.00
2022-09-03T00:23:46.628Z,66.09
2022-09-03T00:26:13.228Z,66.31
2022-09-03T00:28:53.158Z,66.44
2022-09-03T00:31:27.300Z,66.48
2022-09-03T00:34:05.972Z,66.26
2022-09-03T00:36:42.222Z,66.62
2022-09-03T00:39:12.183Z,66.56
2022-09-03T00:41:47.873Z,66.82
2022-09-03T00:45:00.838Z,66.95
2022-09-03T00:47:48.760Z,66.69
2022-09-03T00:50:37.192Z,67.28
2022-09-03T00:53:32.674Z,66.89
2022-09-03T00:56:42.832Z,66.80
2022-09-03T00:59:59.034Z,67.29
2022-09-03T01:03:05.193Z,67.30
2022-09-03T01:05:55.036Z,67.82
2022-09-03T01:08:32.247Z,67.66
2022-09-03T01:11:44.308Z,68.15
2022-09-03T01:14:16.833Z,68.39
2022-09-03T01:16:57.173Z,67.89
2022-09-03T01:19:46.117Z,68.49
2022-09-03T01:22:47.594Z,68.65
2022-09-03T01:25:36.790Z,68.37
2022-09-03T01:28:19.886Z,68.47
2022-09-03T01:30:57.119Z,68.70
2022-09-03T01:33:54.909Z,68.52
2022-09-03T01:36:57.511Z,68.78
2022-09-03T01:39:52.527Z,69.04
2022-09-03T01:42:54.997Z,69.42
2022-09-03T01:45:33.827Z,69.22
2022-09-03T01:48:22.346Z,68.80
2022-09-03T01:50:57.837Z,69.33
2022-09-03T01:53:52.532Z,69.52
2022-09-03T01:56:48.419Z,69.76
2022-09-03T01:59:26.292Z,69.54
2022-09-03T02:02:02.686Z,69.54
2022-09-03T02:04:29.340Z,69.70
2022-09-03T02:07:00.407Z,69.57
2022-09-03T02:09:27.629Z,69.55
2022-09-03T02:12:16.036Z,69.71
2022-09-03T02:14:43.747Z,69.49
2022-09-03T02:17:11.329Z,69.57
2022-09-03T02:19:39.634Z,69.63
2022-09-03T02:22:06.758Z,70.08
2022-09-03T02:24:36.367Z,69.94
2022-09-03T02:27:06.607Z,70.18
2022-09-03T02:29:35.516Z,69.54
2022-09-03T02:32:02.282Z,69.71
2022-09-03T02:34:29.745Z,69.92
2022-09-03T02:36:56.411Z,69.89
2022-09-03T02:39:23.025Z,69.87
2022-09-03T02:42:02.918Z,70.07
2022-09-03T02:44:33.593Z,69.73
2022-09-03T02:47:03.629Z,69.89
2022-09-03T02:49:30.810Z,69.28
2022-09-03T02:52:09.380Z,68.97
2022-09-03T02:54:40.055Z,69.42
2022-09-03T02:57:11.590Z,69.09
2022-09-03T02:59:39.715Z,68.93
2022-09-03T03:02:06.353Z,69.36
2022-09-03T03:04:33.342Z,69.33
2022-09-03T03:07:00.337Z,69.20
2022-09-03T03:09:26.906Z,69.38
2022-09-03T03:11:55.376Z,69.59
2022-09-03T03:14:23.000Z,69.14
2022-09-03T03:16:50.935Z,69.24
2022-09-03T03:19:17.875Z,69.50
2022-09-03T03:21:45.849Z,69.41
2022-09-03T03:24:12.481Z,69.44
2022-09-03T03:26:39.073Z,68.82
2022-09-03T03:29:05.877Z,68.69
2022-09-03T03:31:33.152Z,68.83
2022-09-03T03:34:03.725Z,68.87
2022-09-03T03:36:32.433Z,68.25
2022-09-03T03:39:00.577Z,68.25
2022-09-03T03:41:28.673Z,67.91
2022-09-03T03:43:59.425Z,67.79
2022-09-03T03:46:31.121Z,67.71
2022-09-03T03:48:58.372Z,67.97
2022-09-03T03:51:24.994Z,68.40
2022-09-03T03:53:56.165Z,68.26
2022-09-03T03:56:24.349Z,67.53
2022-09-03T03:58:51.615Z,67.68
2022-09-03T04:01:20.440Z,68.01
2022-09-03T04:03:47.464Z,67.67
2022-09-03T04:06:16.362Z,67.52
2022-09-03T04:08:44.639Z,68.09
2022-09-03T04:11:16.065Z,67.46
2022-09-03T04:13:44.285Z,67.55
2022-09-03T04:16:13.897Z,67.73
2022-09-03T04:18:41.113Z,68.18
2022-09-03T04:21:16.295Z,67.38
2022-09-03T04:23:45.498Z,67.39
2022-09-03T04:26:15.931Z,67.56
2022-09-03T04:28:42.743Z,67.48
2022-09-03T04:31:11.336Z,67.39
2022-09-03T04:33:38.822Z,67.75
2022-09-03T04:36:10.186Z,68.09
2022-09-03T04:38:39.134Z,67.34
2022-09-03T04:41:08.126Z,67.98
2022-09-03T04:43:44.516Z,67.75
2022-09-03T04:46:17.642Z,67.65
2022-09-03T04:48:48.752Z,67.67
2022-09-03T04:51:17.454Z,67.82
2022-09-03T04:53:46.426Z,68.46
2022-09-03T04:56:18.651Z,68.80
2022-09-03T04:59:14.982Z,69.21
2022-09-03T05:01:43.584Z,69.04
2022-09-03T05:04:10.221Z,69.40
2022-09-03T05:06:37.380Z,69.31
2022-09-03T05:09:05.801Z,68.98
2022-09-03T05:11:34.971Z,69.88
2022-09-03T05:14:01.574Z,70.14
2022-09-03T05:16:30.849Z,70.34
2022-09-03T05:18:59.814Z,70.69
2022-09-03T05:21:27.581Z,70.26
2022-09-03T05:23:54.700Z,70.47
2022-09-03T05:26:27.611Z,71.05
2022-09-03T05:28:57.076Z,70.76
2022-09-03T05:31:26.610Z,70.59
2022-09-03T05:33:58.560Z,70.66
2022-09-03T05:36:27.946Z,71.12
2022-09-03T05:38:54.747Z,70.67
2022-09-03T05:41:23.300Z,70.80
2022-09-03T05:43:55.128Z,70.88
2022-09-03T05:46:26.744Z,71.54
2022-09-03T05:48:53.670Z,71.64
2022-09-03T05:51:20.553Z,71.36
2022-09-03T05:53:49.248Z,71.34
2022-09-03T05:56:21.661Z,70.92
2022-09-03T05:58:53.917Z,71.40
2022-09-03T06:01:23.546Z,71.21
2022-09-03T06:03:56.558Z,71.18
2022-09-03T06:06:26.060Z,71.99
2022-09-03T06:08:55.037Z,71.63
2022-09-03T06:11:26.829Z,70.85
2022-09-03T06:13:57.861Z,71.43
2022-09-03T06:16:30.849Z,71.06
2022-09-03T06:19:03.570Z,70.29
2022-09-03T06:21:30.161Z,71.13
2022-09-03T06:24:00.048Z,70.98
2022-09-03T06:26:28.710Z,70.78
2022-09-03T06:28:57.143Z,70.20
2022-09-03T06:31:25.449Z,70.42
2022-09-03T06:33:53.625Z,70.35
2022-09-03T06:36:21.240Z,70.63
2022-09-03T06:38:47.853Z,70.68
2022-09-03T06:41:21.121Z,69.43
2022-09-03T06:43:55.620Z,70.17
2022-09-03T06:46:24.115Z,69.94
2022-09-03T06:48:51.691Z,69.11
2022-09-03T06:51:23.955Z,69.62
2022-09-03T06:53:54.474Z,69.73
2022-09-03T06:56:26.995Z,68.53
2022-09-03T06:58:59.636Z,68.22
2022-09-03T07:01:31.142Z,68.19
2022-09-03T07:04:00.908Z,67.92
2022-09-03T07:06:33.739Z,67.21
2022-09-03T07:09:00.564Z,67.00
2022-09-03T07:11:30.701Z,66.56
2022-09-03T07:13:58.698Z,66.49
2022-09-03T07:16:31.211Z,66.27
2022-09-03T07:18:57.921Z,66.07
2022-09-03T07:21:27.106Z,64.44
2022-09-03T07:23:57.842Z,65.14
2022-09-03T07:26:30.801Z,65.19
2022-09-03T07:28:59.001Z,63.75
2022-09-03T07:31:31.941Z,63.56
2022-09-03T07:34:01.406Z,63.72
2022-09-03T07:36:29.307Z,63.21
2022-09-03T07:39:03.792Z,63.07
2022-09-03T07:41:33.115Z,63.59
2022-09-03T07:44:05.764Z,61.80
2022-09-03T07:46:38.001Z,62.74
2022-09-03T07:49:06.269Z,61.87
2022-09-03T07:51:36.227Z,60.58
2022-09-03T07:54:06.863Z,60.58
2022-09-03T07:56:35.094Z,60.83
2022-09-03T07:59:03.131Z,59.39
2022-09-03T08:01:34.362Z,60.26
2022-09-03T08:04:02.503Z,59.14
2022-09-03T08:06:30.915Z,57.72
2022-09-03T08:09:04.954Z,55.41
2022-09-03T08:11:40.654Z,56.34
2022-09-03T08:14:10.226Z,55.48
2022-09-03T08:16:39.632Z,55.56
2022-09-03T08:19:07.495Z,55.79
2022-09-03T08:21:35.176Z,55.26
2022-09-03T08:24:04.647Z,55.28
2022-09-03T08:26:36.796Z,53.46
2022-09-03T08:29:05.607Z,55.07
2022-09-03T08:31:33.887Z,54.52
2022-09-03T08:34:06.462Z,56.25
2022-09-03T08:36:36.342Z,53.26
2022-09-03T08:39:08.082Z,54.00
2022-09-03T08:41:53.345Z,53.21
2022-09-03T08:44:29.475Z,53.89
2022-09-03T08:47:10.081Z,54.16
2022-09-03T08:49:50.156Z,54.26
2022-09-03T08:52:26.878Z,55.21
2022-09-03T08:55:03.145Z,55.13
2022-09-03T08:57:37.841Z,53.87
2022-09-03T09:00:05.035Z,52.49
2022-09-03T09:02:44.635Z,52.12
2022-09-03T09:05:25.563Z,53.64
2022-09-03T09:08:12.937Z,51.19
2022-09-03T09:11:02.433Z,51.30
2022-09-03T09:13:57.421Z,52.14
2022-09-03T09:16:53.368Z,49.98
2022-09-03T09:19:38.046Z,49.50
2022-09-03T09:22:12.027Z,48.09
2022-09-03T09:24:45.202Z,48.24
2022-09-03T09:27:17.318Z,46.65
2022-09-03T09:29:48.177Z,45.11
2022-09-03T09:32:17.670Z,45.85
2022-09-03T09:34:52.023Z,47.20
2022-09-03T09:37:19.903Z,47.90
2022-09-03T09:40:00.626Z,46.16
2022-09-03T09:42:29.879Z,45.67
2022-09-03T09:44:56.730Z,45.64
2022-09-03T09:47:29.302Z,44.77
2022-09-03T09:49:59.358Z,44.80
2022-09-03T09:52:29.508Z,42.90
2022-09-03T09:55:10.558Z,44.66
2022-09-03T09:57:39.699Z,43.89
2022-09-03T10:00:13.013Z,43.49
2022-09-03T10:02:56.892Z,43.64
2022-09-03T10:05:30.855Z,42.09
2022-09-03T10:08:06.575Z,41.91
2022-09-03T10:10:45.791Z,41.87
2022-09-03T10:13:29.132Z,41.19
2022-09-03T10:16:04.196Z,40.96
2022-09-03T10:18:46.769Z,39.56
2022-09-03T10:21:20.199Z,40.30
2022-09-03T10:23:56.957Z,41.03
2022-09-03T10:26:32.401Z,41.78
2022-09-03T10:29:02.574Z,40.83
2022-09-03T10:31:47.598Z,40.37
2022-09-03T10:34:45.179Z,40.42
2022-09-03T10:37:48.621Z,38.28
2022-09-03T10:40:39.210Z,37.68
2022-09-03T10:43:32.529Z,37.44
2022-09-03T10:46:03.325Z,37.24
2022-09-03T10:48:48.972Z,37.01
2022-09-03T10:51:34.314Z,37.41
2022-09-03T10:54:28.957Z,36.15
2022-09-03T10:57:07.745Z,36.21
2022-09-03T10:59:48.933Z,36.78
2022-09-03T11:02:54.184Z,35.72
2022-09-03T11:05:24.961Z,36.16
2022-09-03T11:08:17.297Z,36.77
2022-09-03T11:10:50.194Z,35.82
2022-09-03T11:13:26.712Z,35.95
2022-09-03T11:15:59.578Z,36.25
2022-09-03T11:18:46.882Z,34.95
2022-09-03T11:21:16.837Z,35.90
2022-09-03T11:23:47.562Z,35.31
2022-09-03T11:26:18.326Z,34.80
2022-09-03T11:28:48.261Z,34.60
2022-09-03T11:31:43.409Z,35.78
2022-09-03T11:34:31.983Z,34.92
2022-09-03T11:37:26.321Z,35.40
2022-09-03T11:40:19.439Z,35.15
2022-09-03T11:42:47.272Z,35.02
2022-09-03T11:45:44.400Z,34.41
2022-09-03T11:48:28.921Z,34.80
2022-09-03T11:50:56.014Z,34.60
2022-09-03T11:53:28.415Z,34.99
2022-09-03T11:56:01.655Z,34.94
2022-09-03T11:58:36.201Z,34.61
2022-09-03T12:01:08.160Z,35.12
2022-09-03T12:03:58.485Z,34.31
2022-09-03T12:07:00.146Z,34.71
2022-09-03T12:09:32.767Z,35.27
2022-09-03T12:12:18.100Z,34.03
2022-09-03T12:14:57.949Z,35.01
2022-09-03T12:17:40.282Z,35.32
2022-09-03T12:20:15.834Z,35.17
2022-09-03T12:22:45.507Z,35.16
2022-09-03T12:25:14.777Z,34.91
2022-09-03T12:27:45.584Z,34.46
2022-09-03T12:30:18.877Z,34.73
2022-09-03T12:32:48.119Z,34.73
2022-09-03T12:38:18.708Z,35.36
2022-09-03T12:43:42.489Z,35.62
2022-09-03T12:46:15.662Z,35.16
2022-09-03T12:52:06.219Z,34.65
2022-09-03T12:54:37.845Z,34.98
2022-09-03T12:57:05.074Z,34.58
2022-09-03T12:59:36.822Z,35.05
2022-09-03T13:02:31.658Z,34.86
2022-09-03T13:04:58.897Z,34.55
2022-09-03T13:07:37.395Z,34.41
2022-09-03T13:10:07.805Z,34.29
2022-09-03T13:12:44.549Z,34.27
2022-09-03T13:15:22.185Z,34.77
2022-09-03T13:18:10.624Z,34.78
2022-09-03T13:20:55.248Z,34.45
2022-09-03T13:23:38.114Z,34.51
2022-09-03T13:26:18.574Z,33.73
2022-09-03T13:29:01.786Z,34.85
2022-09-03T13:31:38.773Z,35.09
2022-09-03T13:34:15.474Z,34.20
2022-09-03T13:36:51.769Z,34.49
2022-09-03T13:39:26.323Z,34.64
2022-09-03T13:42:09.500Z,33.31
2022-09-03T13:44:50.288Z,34.58
2022-09-03T13:48:13.140Z,34.76
2022-09-03T13:51:00.005Z,33.97
2022-09-03T13:53:51.255Z,33.84
2022-09-03T13:56:59.685Z,33.37
2022-09-03T13:59:35.460Z,33.45
2022-09-03T14:02:13.076Z,33.20
2022-09-03T14:04:52.109Z,33.57
2022-09-03T14:07:52.437Z,33.01
2022-09-03T14:10:25.480Z,33.90
2022-09-03T14:13:16.161Z,33.77
2022-09-03T14:15:55.490Z,33.82
2022-09-03T14:18:50.822Z,33.20
2022-09-03T14:21:40.706Z,34.29
2022-09-03T14:24:22.196Z,33.71
2022-09-03T14:27:02.305Z,33.69
2022-09-03T14:29:33.720Z,33.02
2022-09-03T14:32:12.514Z,33.29
2022-09-03T14:35:07.454Z,33.22
2022-09-03T14:37:49.181Z,33.65
2022-09-03T14:40:22.365Z,33.78
2022-09-03T14:42:48.887Z,33.18
2022-09-03T14:45:26.854Z,34.00
2022-09-03T14:48:08.010Z,33.75
2022-09-03T14:50:50.393Z,33.81
2022-09-03T14:53:42.438Z,33.54
2022-09-03T14:56:20.830Z,33.49
2022-09-03T14:59:18.138Z,33.42
2022-09-03T15:01:52.438Z,33.45
2022-09-03T15:04:31.754Z,33.94
2022-09-03T15:07:25.164Z,33.57
2022-09-03T15:10:24.393Z,34.18
2022-09-03T15:13:10.700Z,34.01
2022-09-03T15:15:40.425Z,33.63
2022-09-03T15:18:20.652Z,34.41
2022-09-03T15:20:58.174Z,32.87
2022-09-03T15:23:53.084Z,33.84
2022-09-03T15:26:43.053Z,33.52
2022-09-03T15:29:28.146Z,33.20
2022-09-03T15:32:27.649Z,33.36
2022-09-03T15:35:04.473Z,33.76
2022-09-03T15:37:49.068Z,33.74
2022-09-03T15:40:39.471Z,33.69
2022-09-03T15:43:15.655Z,33.42
2022-09-03T15:45:58.318Z,33.25
2022-09-03T15:49:08.890Z,33.16
2022-09-03T15:52:01.487Z,33.39
2022-09-03T15:54:43.720Z,33.95
2022-09-03T15:57:21.871Z,33.66
2022-09-03T16:00:00.420Z,34.18
2022-09-03T16:02:50.636Z,33.51
2022-09-03T16:05:25.346Z,33.78
2022-09-03T16:08:07.012Z,33.54
2022-09-03T16:10:57.113Z,33.38
2022-09-03T16:13:34.868Z,33.90
2022-09-03T16:16:22.284Z,34.34
2022-09-03T16:19:10.093Z,34.40
2022-09-03T16:21:54.819Z,34.16
2022-09-03T16:24:28.812Z,34.66
2022-09-03T16:27:03.438Z,34.06
2022-09-03T16:29:31.668Z,34.08
2022-09-03T16:32:03.977Z,34.73
2022-09-03T16:34:42.601Z,34.92
2022-09-03T16:37:21.577Z,34.76
2022-09-03T16:40:08.324Z,35.27
2022-09-03T16:43:00.540Z,34.41
2022-09-03T16:45:48.618Z,34.97
2022-09-03T16:48:33.509Z,35.38
2022-09-03T16:51:29.129Z,35.81
2022-09-03T16:54:09.110Z,35.31
2022-09-03T16:57:00.264Z,35.99
2022-09-03T16:59:53.321Z,35.74
2022-09-03T17:02:40.107Z,35.53
2022-09-03T17:05:21.777Z,35.46
2022-09-03T17:07:57.533Z,35.70
2022-09-03T17:10:55.569Z,35.91
2022-09-03T17:13:40.763Z,36.06
2022-09-03T17:16:10.325Z,36.02
2022-09-03T17:18:58.343Z,36.24
2022-09-03T17:21:54.888Z,36.36
2022-09-03T17:24:38.387Z,36.99
2022-09-03T17:27:28.796Z,36.46
2022-09-03T17:30:03.321Z,36.51
2022-09-03T17:33:04.422Z,36.83
2022-09-03T17:36:03.529Z,36.75
2022-09-03T17:38:56.564Z,36.73
2022-09-03T17:41:54.727Z,37.13
2022-09-03T17:44:22.251Z,37.08
2022-09-03T17:46:48.854Z,37.24
2022-09-03T17:49:30.314Z,38.08
2022-09-03T17:52:20.573Z,38.21
2022-09-03T17:54:55.890Z,38.65
2022-09-03T17:58:03.032Z,38.68
2022-09-03T18:00:42.145Z,39.19
2022-09-03T18:03:18.568Z,39.34
2022-09-03T18:06:00.797Z,39.35
2022-09-03T18:08:44.993Z,39.39
2022-09-03T18:11:34.007Z,39.88
2022-09-03T18:14:33.827Z,40.41
2022-09-03T18:17:09.791Z,40.32
2022-09-03T18:20:04.348Z,40.77
2022-09-03T18:22:57.978Z,41.28
2022-09-03T18:25:46.838Z,41.36
2022-09-03T18:28:36.377Z,41.78
2022-09-03T18:31:21.863Z,42.18
2022-09-03T18:34:07.629Z,42.15
2022-09-03T18:36:52.942Z,42.25
2022-09-03T18:39:47.103Z,42.83
2022-09-03T18:42:56.374Z,42.41
2022-09-03T18:46:42.386Z,42.52
2022-09-03T18:49:30.131Z,42.31
2022-09-03T18:52:30.167Z,42.82
2022-09-03T18:55:38.646Z,43.06
2022-09-03T18:58:33.386Z,43.27
2022-09-03T19:01:40.926Z,43.32
2022-09-03T19:04:47.683Z,43.89
2022-09-03T19:08:24.609Z,44.29
2022-09-03T19:11:15.845Z,44.18
2022-09-03T19:14:01.696Z,44.79
2022-09-03T19:17:12.924Z,44.74
2022-09-03T19:20:05.215Z,45.04
2022-09-03T19:22:58.766Z,45.32
2022-09-03T19:25:47.718Z,45.72
2022-09-03T19:28:39.325Z,45.92
2022-09-03T19:31:37.837Z,45.97
2022-09-03T19:34:30.601Z,46.29
2022-09-03T19:37:37.514Z,46.26
2022-09-03T19:40:49.221Z,46.33
2022-09-03T19:43:51.107Z,46.21
2022-09-03T19:46:56.427Z,46.03
2022-09-03T19:49:55.195Z,46.18
2022-09-03T19:53:05.279Z,46.77
2022-09-03T19:56:05.178Z,46.56
2022-09-03T19:58:57.598Z,46.95
2022-09-03T20:01:47.977Z,46.78
2022-09-03T20:04:34.765Z,47.25
2022-09-03T20:07:24.346Z,47.47
2022-09-03T20:10:12.508Z,47.19
2022-09-03T20:12:47.606Z,47.06
2022-09-03T20:15:14.563Z,47.67
2022-09-03T20:18:04.517Z,47.48
2022-09-03T20:20:48.540Z,47.66
2022-09-03T20:23:23.002Z,48.13
2022-09-03T20:26:27.860Z,47.75
2022-09-03T20:29:23.264Z,48.05
2022-09-03T20:32:16.680Z,48.91
2022-09-03T20:35:05.535Z,48.65
2022-09-03T20:37:42.168Z,49.35
2022-09-03T20:40:18.257Z,49.22
2022-09-03T20:43:07.547Z,49.20
2022-09-03T20:45:42.389Z,49.26
2022-09-03T20:48:25.234Z,49.27
2022-09-03T20:51:20.210Z,49.66
2022-09-03T20:53:59.812Z,50.08
2022-09-03T20:56:35.709Z,50.11
2022-09-03T20:59:13.454Z,49.81
2022-09-03T21:01:59.086Z,50.20
2022-09-03T21:05:02.854Z,50.48
2022-09-03T21:07:46.735Z,50.82
2022-09-03T21:10:16.260Z,51.10
2022-09-03T21:12:42.838Z,50.93
2022-09-03T21:15:22.798Z,51.07
2022-09-03T21:18:06.533Z,51.13
2022-09-03T21:20:47.744Z,51.24
2022-09-03T21:23:38.256Z,51.61
2022-09-03T21:26:15.693Z,51.80
2022-09-03T21:28:49.985Z,51.80
2022-09-03T21:31:27.855Z,52.21
2022-09-03T21:34:01.502Z,52.33
2022-09-03T21:36:33.590Z,52.74
2022-09-03T21:39:13.119Z,52.61
2022-09-03T21:42:06.921Z,52.53
2022-09-03T21:44:45.620Z,52.96
2022-09-03T21:47:21.351Z,52.96
2022-09-03T21:50:03.180Z,53.40
2022-09-03T21:52:36.900Z,52.82
2022-09-03T21:55:22.739Z,53.18
2022-09-03T21:58:20.006Z,53.39
2022-09-03T22:00:48.317Z,53.11
2022-09-03T22:03:14.981Z,53.32
2022-09-03T22:06:01.345Z,53.93
2022-09-03T22:08:36.953Z,54.09
2022-09-03T22:11:24.262Z,54.06
2022-09-03T22:14:04.102Z,53.87
2022-09-03T22:16:37.663Z,54.18
2022-09-03T22:19:07.692Z,54.22
2022-09-03T22:22:00.602Z,54.31
2022-09-03T22:24:48.227Z,54.76
2022-09-03T22:27:35.570Z,54.79
2022-09-03T22:30:07.521Z,54.94
2022-09-03T22:32:41.198Z,54.77
2022-09-03T22:35:46.439Z,54.91
2022-09-03T22:38:33.343Z,54.92
2022-09-03T22:41:20.057Z,55.10
2022-09-03T22:44:02.069Z,55.04
2022-09-03T22:46:42.222Z,55.30
2022-09-03T22:49:21.607Z,55.47
2022-09-03T22:52:15.010Z,55.79
2022-09-03T22:55:07.080Z,56.10
2022-09-03T22:57:41.555Z,56.14
2022-09-03T23:00:10.502Z,56.70
2022-09-03T23:02:38.520Z,56.67
2022-09-03T23:05:18.586Z,56.60
2022-09-03T23:08:03.126Z,56.71
2022-09-03T23:10:35.788Z,56.75
2022-09-03T23:13:14.281Z,57.04
2022-09-03T23:15:42.164Z,57.30
2022-09-03T23:18:17.723Z,57.55
2022-09-03T23:20:51.768Z,58.16
2022-09-03T23:23:22.342Z,58.08
2022-09-03T23:26:14.769Z,58.19
2022-09-03T23:28:47.408Z,58.38
2022-09-03T23:31:19.826Z,58.00
2022-09-03T23:33:47.908Z,58.88
2022-09-03T23:40:03.425Z,59.40
2022-09-03T23:43:15.409Z,59.17
2022-09-03T23:46:04.064Z,59.55
2022-09-03T23:48:42.920Z,60.06
2022-09-03T23:51:22.586Z,60.22
2022-09-03T23:54:23.205Z,59.94
2022-09-03T23:57:28.085Z,59.81
